sensor_id;sensor_type;location;lat;lon;timestamp;P1;durP1;ratioP1;P2;durP2;ratioP2
33160;SDS011;19522;45.656;11.302;2024-01-30T00:01:41;23.90;;;14.57;;
33160;SDS011;19522;45.656;11.302;2024-01-30T00:04:07;22.73;;;13.43;;
33160;SDS011;19522;45.656;11.302;2024-01-30T00:06:32;23.90;;;14.73;;
33160;SDS011;19522;45.656;11.302;2024-01-30T00:08:58;21.38;;;13.13;;
33160;SDS011;19522;45.656;11.302;2024-01-30T00:11:26;23.67;;;14.32;;
33160;SDS011;19522;45.656;11.302;2024-01-30T00:13:53;21.48;;;13.32;;
33160;SDS011;19522;45.656;11.302;2024-01-30T00:16:21;20.23;;;12.80;;
33160;SDS011;19522;45.656;11.302;2024-01-30T00:18:49;22.23;;;15.77;;
33160;SDS011;19522;45.656;11.302;2024-01-30T00:21:15;22.45;;;14.60;;
33160;SDS011;19522;45.656;11.302;2024-01-30T00:23:41;17.02;;;11.48;;
33160;SDS011;19522;45.656;11.302;2024-01-30T00:26:06;20.05;;;12.23;;
33160;SDS011;19522;45.656;11.302;2024-01-30T00:28:32;21.55;;;12.27;;
33160;SDS011;19522;45.656;11.302;2024-01-30T00:30:57;20.35;;;12.32;;
33160;SDS011;19522;45.656;11.302;2024-01-30T00:33:23;24.05;;;11.73;;
33160;SDS011;19522;45.656;11.302;2024-01-30T00:35:48;19.75;;;13.07;;
33160;SDS011;19522;45.656;11.302;2024-01-30T00:38:14;19.65;;;11.90;;
33160;SDS011;19522;45.656;11.302;2024-01-30T00:40:39;19.63;;;12.27;;
33160;SDS011;19522;45.656;11.302;2024-01-30T00:43:05;21.52;;;13.50;;
33160;SDS011;19522;45.656;11.302;2024-01-30T00:45:36;19.08;;;12.23;;
33160;SDS011;19522;45.656;11.302;2024-01-30T00:48:02;19.75;;;12.50;;
33160;SDS011;19522;45.656;11.302;2024-01-30T00:50:29;23.45;;;14.25;;
33160;SDS011;19522;45.656;11.302;2024-01-30T00:52:54;19.70;;;13.52;;
33160;SDS011;19522;45.656;11.302;2024-01-30T00:55:20;17.63;;;11.77;;
33160;SDS011;19522;45.656;11.302;2024-01-30T00:57:45;17.27;;;10.63;;
33160;SDS011;19522;45.656;11.302;2024-01-30T01:00:12;19.63;;;11.38;;
33160;SDS011;19522;45.656;11.302;2024-01-30T01:02:41;20.80;;;11.00;;
33160;SDS011;19522;45.656;11.302;2024-01-30T01:05:06;17.20;;;11.27;;
33160;SDS011;19522;45.656;11.302;2024-01-30T01:07:32;18.70;;;11.25;;
33160;SDS011;19522;45.656;11.302;2024-01-30T01:09:57;18.55;;;10.98;;
33160;SDS011;19522;45.656;11.302;2024-01-30T01:12:23;18.05;;;11.23;;
33160;SDS011;19522;45.656;11.302;2024-01-30T01:14:49;19.20;;;11.18;;
33160;SDS011;19522;45.656;11.302;2024-01-30T01:17:14;16.52;;;9.82;;
33160;SDS011;19522;45.656;11.302;2024-01-30T01:19:40;17.98;;;10.73;;
33160;SDS011;19522;45.656;11.302;2024-01-30T01:22:05;16.80;;;10.75;;
33160;SDS011;19522;45.656;11.302;2024-01-30T01:24:31;16.45;;;10.90;;
33160;SDS011;19522;45.656;11.302;2024-01-30T01:26:58;16.75;;;10.73;;
33160;SDS011;19522;45.656;11.302;2024-01-30T01:29:24;16.75;;;10.15;;
33160;SDS011;19522;45.656;11.302;2024-01-30T01:31:57;20.50;;;11.32;;
33160;SDS011;19522;45.656;11.302;2024-01-30T01:34:23;19.73;;;11.02;;
33160;SDS011;19522;45.656;11.302;2024-01-30T01:36:52;17.35;;;10.05;;
33160;SDS011;19522;45.656;11.302;2024-01-30T01:39:20;16.48;;;9.90;;
33160;SDS011;19522;45.656;11.302;2024-01-30T01:41:47;13.68;;;8.52;;
33160;SDS011;19522;45.656;11.302;2024-01-30T01:44:13;15.55;;;10.05;;
33160;SDS011;19522;45.656;11.302;2024-01-30T01:46:38;18.08;;;10.95;;
33160;SDS011;19522;45.656;11.302;2024-01-30T01:49:24;15.23;;;8.52;;
33160;SDS011;19522;45.656;11.302;2024-01-30T01:51:52;14.48;;;9.88;;
33160;SDS011;19522;45.656;11.302;2024-01-30T01:54:21;16.10;;;9.30;;
33160;SDS011;19522;45.656;11.302;2024-01-30T01:56:48;19.90;;;11.35;;
33160;SDS011;19522;45.656;11.302;2024-01-30T01:59:15;19.05;;;11.35;;
33160;SDS011;19522;45.656;11.302;2024-01-30T02:01:41;15.95;;;10.30;;
33160;SDS011;19522;45.656;11.302;2024-01-30T02:04:07;15.38;;;9.10;;
33160;SDS011;19522;45.656;11.302;2024-01-30T02:06:33;14.57;;;9.15;;
33160;SDS011;19522;45.656;11.302;2024-01-30T02:09:01;17.30;;;10.70;;
33160;SDS011;19522;45.656;11.302;2024-01-30T02:11:26;15.80;;;9.32;;
33160;SDS011;19522;45.656;11.302;2024-01-30T02:13:53;13.75;;;9.35;;
33160;SDS011;19522;45.656;11.302;2024-01-30T02:16:19;16.83;;;9.48;;
33160;SDS011;19522;45.656;11.302;2024-01-30T02:18:44;14.98;;;9.32;;
33160;SDS011;19522;45.656;11.302;2024-01-30T02:21:16;17.48;;;9.68;;
33160;SDS011;19522;45.656;11.302;2024-01-30T02:23:43;15.32;;;10.30;;
33160;SDS011;19522;45.656;11.302;2024-01-30T02:26:11;16.92;;;10.25;;
33160;SDS011;19522;45.656;11.302;2024-01-30T02:28:37;18.33;;;9.68;;
33160;SDS011;19522;45.656;11.302;2024-01-30T02:31:03;14.55;;;9.02;;
33160;SDS011;19522;45.656;11.302;2024-01-30T02:33:28;15.18;;;9.18;;
33160;SDS011;19522;45.656;11.302;2024-01-30T02:35:54;14.55;;;9.30;;
33160;SDS011;19522;45.656;11.302;2024-01-30T02:38:20;19.73;;;9.85;;
33160;SDS011;19522;45.656;11.302;2024-01-30T02:40:45;13.52;;;9.13;;
33160;SDS011;19522;45.656;11.302;2024-01-30T02:43:11;18.05;;;9.63;;
33160;SDS011;19522;45.656;11.302;2024-01-30T02:45:37;14.05;;;8.60;;
33160;SDS011;19522;45.656;11.302;2024-01-30T02:48:03;16.88;;;9.45;;
33160;SDS011;19522;45.656;11.302;2024-01-30T02:50:28;17.33;;;9.65;;
33160;SDS011;19522;45.656;11.302;2024-01-30T02:52:54;13.82;;;8.80;;
33160;SDS011;19522;45.656;11.302;2024-01-30T02:55:19;14.20;;;9.10;;
33160;SDS011;19522;45.656;11.302;2024-01-30T02:57:45;13.10;;;9.05;;
33160;SDS011;19522;45.656;11.302;2024-01-30T03:00:11;20.90;;;11.35;;
33160;SDS011;19522;45.656;11.302;2024-01-30T03:02:37;15.95;;;9.63;;
33160;SDS011;19522;45.656;11.302;2024-01-30T03:05:03;15.18;;;8.85;;
33160;SDS011;19522;45.656;11.302;2024-01-30T03:07:30;14.88;;;8.75;;
33160;SDS011;19522;45.656;11.302;2024-01-30T03:09:55;14.40;;;8.45;;
33160;SDS011;19522;45.656;11.302;2024-01-30T03:12:21;11.82;;;7.75;;
33160;SDS011;19522;45.656;11.302;2024-01-30T03:14:47;13.95;;;8.40;;
33160;SDS011;19522;45.656;11.302;2024-01-30T03:17:13;11.18;;;7.43;;
33160;SDS011;19522;45.656;11.302;2024-01-30T03:19:38;16.35;;;10.30;;
33160;SDS011;19522;45.656;11.302;2024-01-30T03:22:04;17.92;;;10.48;;
33160;SDS011;19522;45.656;11.302;2024-01-30T03:24:30;13.93;;;9.05;;
33160;SDS011;19522;45.656;11.302;2024-01-30T03:26:55;14.43;;;8.68;;
33160;SDS011;19522;45.656;11.302;2024-01-30T03:29:21;15.52;;;9.35;;
33160;SDS011;19522;45.656;11.302;2024-01-30T03:31:46;14.95;;;10.15;;
33160;SDS011;19522;45.656;11.302;2024-01-30T03:34:12;13.10;;;8.77;;
33160;SDS011;19522;45.656;11.302;2024-01-30T03:36:38;13.90;;;8.48;;
33160;SDS011;19522;45.656;11.302;2024-01-30T03:39:03;11.57;;;7.43;;
33160;SDS011;19522;45.656;11.302;2024-01-30T03:41:29;12.40;;;7.85;;
33160;SDS011;19522;45.656;11.302;2024-01-30T03:43:57;12.48;;;7.00;;
33160;SDS011;19522;45.656;11.302;2024-01-30T03:46:23;12.57;;;7.55;;
33160;SDS011;19522;45.656;11.302;2024-01-30T03:48:49;13.65;;;7.68;;
33160;SDS011;19522;45.656;11.302;2024-01-30T03:51:15;9.95;;;7.03;;
33160;SDS011;19522;45.656;11.302;2024-01-30T03:53:44;11.23;;;6.72;;
33160;SDS011;19522;45.656;11.302;2024-01-30T03:56:11;11.40;;;7.22;;
33160;SDS011;19522;45.656;11.302;2024-01-30T03:58:38;16.55;;;8.05;;
33160;SDS011;19522;45.656;11.302;2024-01-30T04:01:04;11.45;;;6.97;;
33160;SDS011;19522;45.656;11.302;2024-01-30T04:03:29;12.73;;;7.20;;
33160;SDS011;19522;45.656;11.302;2024-01-30T04:05:55;12.90;;;6.70;;
33160;SDS011;19522;45.656;11.302;2024-01-30T04:08:20;11.25;;;7.28;;
33160;SDS011;19522;45.656;11.302;2024-01-30T04:10:46;13.30;;;7.60;;
33160;SDS011;19522;45.656;11.302;2024-01-30T04:13:12;13.35;;;8.15;;
33160;SDS011;19522;45.656;11.302;2024-01-30T04:15:40;11.10;;;7.15;;
33160;SDS011;19522;45.656;11.302;2024-01-30T04:18:06;10.55;;;6.97;;
33160;SDS011;19522;45.656;11.302;2024-01-30T04:20:34;12.98;;;7.63;;
33160;SDS011;19522;45.656;11.302;2024-01-30T04:23:00;11.60;;;7.85;;
33160;SDS011;19522;45.656;11.302;2024-01-30T04:25:25;11.65;;;7.15;;
33160;SDS011;19522;45.656;11.302;2024-01-30T04:27:51;11.15;;;7.32;;
33160;SDS011;19522;45.656;11.302;2024-01-30T04:30:16;16.65;;;7.80;;
33160;SDS011;19522;45.656;11.302;2024-01-30T04:32:44;14.88;;;7.70;;
33160;SDS011;19522;45.656;11.302;2024-01-30T04:35:10;13.27;;;7.95;;
33160;SDS011;19522;45.656;11.302;2024-01-30T04:37:36;16.27;;;9.43;;
33160;SDS011;19522;45.656;11.302;2024-01-30T04:40:01;15.13;;;9.05;;
33160;SDS011;19522;45.656;11.302;2024-01-30T04:42:28;23.83;;;13.95;;
33160;SDS011;19522;45.656;11.302;2024-01-30T04:44:53;19.75;;;14.18;;
33160;SDS011;19522;45.656;11.302;2024-01-30T04:47:19;17.25;;;11.45;;
33160;SDS011;19522;45.656;11.302;2024-01-30T04:49:44;13.75;;;8.75;;
33160;SDS011;19522;45.656;11.302;2024-01-30T04:52:10;14.05;;;8.98;;
33160;SDS011;19522;45.656;11.302;2024-01-30T04:54:35;13.77;;;7.68;;
33160;SDS011;19522;45.656;11.302;2024-01-30T04:57:01;12.20;;;7.45;;
33160;SDS011;19522;45.656;11.302;2024-01-30T04:59:27;12.32;;;7.75;;
33160;SDS011;19522;45.656;11.302;2024-01-30T05:01:53;15.30;;;7.97;;
33160;SDS011;19522;45.656;11.302;2024-01-30T05:04:19;12.35;;;7.63;;
33160;SDS011;19522;45.656;11.302;2024-01-30T05:06:44;12.98;;;7.82;;
33160;SDS011;19522;45.656;11.302;2024-01-30T05:09:10;12.27;;;7.65;;
33160;SDS011;19522;45.656;11.302;2024-01-30T05:11:37;13.15;;;7.15;;
33160;SDS011;19522;45.656;11.302;2024-01-30T05:14:05;11.23;;;7.43;;
33160;SDS011;19522;45.656;11.302;2024-01-30T05:16:31;10.45;;;6.57;;
33160;SDS011;19522;45.656;11.302;2024-01-30T05:18:57;13.13;;;6.75;;
33160;SDS011;19522;45.656;11.302;2024-01-30T05:21:24;11.88;;;8.00;;
33160;SDS011;19522;45.656;11.302;2024-01-30T05:23:52;12.98;;;8.27;;
33160;SDS011;19522;45.656;11.302;2024-01-30T05:26:18;17.50;;;10.70;;
33160;SDS011;19522;45.656;11.302;2024-01-30T05:28:43;17.17;;;9.77;;
33160;SDS011;19522;45.656;11.302;2024-01-30T05:31:12;12.48;;;8.10;;
33160;SDS011;19522;45.656;11.302;2024-01-30T05:33:37;11.07;;;7.85;;
33160;SDS011;19522;45.656;11.302;2024-01-30T05:36:03;12.90;;;7.80;;
33160;SDS011;19522;45.656;11.302;2024-01-30T05:38:29;12.45;;;7.90;;
33160;SDS011;19522;45.656;11.302;2024-01-30T05:40:55;13.27;;;7.35;;
33160;SDS011;19522;45.656;11.302;2024-01-30T05:43:22;12.93;;;8.07;;
33160;SDS011;19522;45.656;11.302;2024-01-30T05:45:48;15.70;;;10.05;;
33160;SDS011;19522;45.656;11.302;2024-01-30T05:48:14;16.27;;;11.68;;
33160;SDS011;19522;45.656;11.302;2024-01-30T05:50:39;17.83;;;11.20;;
33160;SDS011;19522;45.656;11.302;2024-01-30T05:53:05;14.70;;;10.32;;
33160;SDS011;19522;45.656;11.302;2024-01-30T05:55:30;18.70;;;11.40;;
33160;SDS011;19522;45.656;11.302;2024-01-30T05:57:56;12.88;;;8.18;;
33160;SDS011;19522;45.656;11.302;2024-01-30T06:00:21;13.23;;;7.57;;
33160;SDS011;19522;45.656;11.302;2024-01-30T06:02:46;12.05;;;7.60;;
33160;SDS011;19522;45.656;11.302;2024-01-30T06:05:12;18.65;;;8.63;;
33160;SDS011;19522;45.656;11.302;2024-01-30T06:07:38;10.82;;;7.53;;
33160;SDS011;19522;45.656;11.302;2024-01-30T06:10:03;12.18;;;7.88;;
33160;SDS011;19522;45.656;11.302;2024-01-30T06:12:34;12.18;;;8.15;;
33160;SDS011;19522;45.656;11.302;2024-01-30T06:15:03;13.35;;;8.20;;
33160;SDS011;19522;45.656;11.302;2024-01-30T06:17:28;13.55;;;8.82;;
33160;SDS011;19522;45.656;11.302;2024-01-30T06:19:54;13.82;;;8.50;;
33160;SDS011;19522;45.656;11.302;2024-01-30T06:22:19;46.58;;;22.95;;
33160;SDS011;19522;45.656;11.302;2024-01-30T06:24:45;14.57;;;8.38;;
33160;SDS011;19522;45.656;11.302;2024-01-30T06:27:13;13.75;;;8.15;;
33160;SDS011;19522;45.656;11.302;2024-01-30T06:29:38;11.38;;;7.95;;
33160;SDS011;19522;45.656;11.302;2024-01-30T06:32:05;16.20;;;10.15;;
33160;SDS011;19522;45.656;11.302;2024-01-30T06:34:30;14.35;;;9.70;;
33160;SDS011;19522;45.656;11.302;2024-01-30T06:36:56;15.90;;;10.68;;
33160;SDS011;19522;45.656;11.302;2024-01-30T06:39:21;22.25;;;14.35;;
33160;SDS011;19522;45.656;11.302;2024-01-30T06:41:48;21.65;;;16.10;;
33160;SDS011;19522;45.656;11.302;2024-01-30T06:44:14;21.52;;;14.88;;
33160;SDS011;19522;45.656;11.302;2024-01-30T06:46:40;32.13;;;21.50;;
33160;SDS011;19522;45.656;11.302;2024-01-30T06:49:05;33.30;;;20.38;;
33160;SDS011;19522;45.656;11.302;2024-01-30T06:51:31;26.15;;;16.33;;
33160;SDS011;19522;45.656;11.302;2024-01-30T06:53:56;26.42;;;15.95;;
33160;SDS011;19522;45.656;11.302;2024-01-30T06:56:22;41.05;;;32.05;;
33160;SDS011;19522;45.656;11.302;2024-01-30T06:58:48;42.25;;;33.03;;
33160;SDS011;19522;45.656;11.302;2024-01-30T07:01:14;38.58;;;27.05;;
33160;SDS011;19522;45.656;11.302;2024-01-30T07:03:41;24.63;;;17.65;;
33160;SDS011;19522;45.656;11.302;2024-01-30T07:06:10;19.15;;;12.02;;
33160;SDS011;19522;45.656;11.302;2024-01-30T07:08:38;20.75;;;11.68;;
33160;SDS011;19522;45.656;11.302;2024-01-30T07:11:07;17.17;;;12.52;;
33160;SDS011;19522;45.656;11.302;2024-01-30T07:13:33;18.65;;;14.40;;
33160;SDS011;19522;45.656;11.302;2024-01-30T07:15:59;20.08;;;13.50;;
33160;SDS011;19522;45.656;11.302;2024-01-30T07:18:25;18.55;;;13.68;;
33160;SDS011;19522;45.656;11.302;2024-01-30T07:20:51;18.83;;;13.68;;
33160;SDS011;19522;45.656;11.302;2024-01-30T07:23:17;19.15;;;14.07;;
33160;SDS011;19522;45.656;11.302;2024-01-30T07:25:43;20.75;;;13.73;;
33160;SDS011;19522;45.656;11.302;2024-01-30T07:28:10;21.02;;;13.13;;
33160;SDS011;19522;45.656;11.302;2024-01-30T07:30:37;22.20;;;14.13;;
33160;SDS011;19522;45.656;11.302;2024-01-30T07:33:03;17.35;;;12.68;;
33160;SDS011;19522;45.656;11.302;2024-01-30T07:35:28;20.90;;;12.52;;
33160;SDS011;19522;45.656;11.302;2024-01-30T07:37:54;16.25;;;11.63;;
33160;SDS011;19522;45.656;11.302;2024-01-30T07:40:20;26.58;;;17.90;;
33160;SDS011;19522;45.656;11.302;2024-01-30T07:42:45;22.48;;;15.40;;
33160;SDS011;19522;45.656;11.302;2024-01-30T07:45:11;18.58;;;11.75;;
33160;SDS011;19522;45.656;11.302;2024-01-30T07:47:36;16.38;;;10.50;;
33160;SDS011;19522;45.656;11.302;2024-01-30T07:50:02;15.73;;;9.80;;
33160;SDS011;19522;45.656;11.302;2024-01-30T07:52:28;15.02;;;9.23;;
33160;SDS011;19522;45.656;11.302;2024-01-30T07:54:53;13.50;;;9.25;;
33160;SDS011;19522;45.656;11.302;2024-01-30T07:57:20;15.13;;;9.10;;
33160;SDS011;19522;45.656;11.302;2024-01-30T07:59:45;15.32;;;10.07;;
33160;SDS011;19522;45.656;11.302;2024-01-30T08:02:11;14.50;;;9.55;;
33160;SDS011;19522;45.656;11.302;2024-01-30T08:04:40;15.32;;;11.10;;
33160;SDS011;19522;45.656;11.302;2024-01-30T08:07:08;23.50;;;14.75;;
33160;SDS011;19522;45.656;11.302;2024-01-30T08:09:37;19.55;;;12.18;;
33160;SDS011;19522;45.656;11.302;2024-01-30T08:12:02;16.30;;;10.40;;
33160;SDS011;19522;45.656;11.302;2024-01-30T08:14:28;18.17;;;11.82;;
33160;SDS011;19522;45.656;11.302;2024-01-30T08:16:53;19.25;;;11.77;;
33160;SDS011;19522;45.656;11.302;2024-01-30T08:19:20;20.45;;;11.95;;
33160;SDS011;19522;45.656;11.302;2024-01-30T08:21:45;17.20;;;11.52;;
33160;SDS011;19522;45.656;11.302;2024-01-30T08:24:11;18.23;;;11.55;;
33160;SDS011;19522;45.656;11.302;2024-01-30T08:26:36;19.75;;;11.63;;
33160;SDS011;19522;45.656;11.302;2024-01-30T08:29:02;17.23;;;11.23;;
33160;SDS011;19522;45.656;11.302;2024-01-30T08:31:27;15.80;;;10.73;;
33160;SDS011;19522;45.656;11.302;2024-01-30T08:33:53;14.70;;;9.88;;
33160;SDS011;19522;45.656;11.302;2024-01-30T08:36:19;14.93;;;9.88;;
33160;SDS011;19522;45.656;11.302;2024-01-30T08:38:45;19.58;;;9.98;;
33160;SDS011;19522;45.656;11.302;2024-01-30T08:41:10;15.15;;;9.60;;
33160;SDS011;19522;45.656;11.302;2024-01-30T08:43:36;14.90;;;9.27;;
33160;SDS011;19522;45.656;11.302;2024-01-30T08:46:02;19.10;;;11.07;;
33160;SDS011;19522;45.656;11.302;2024-01-30T08:48:28;22.15;;;13.88;;
33160;SDS011;19522;45.656;11.302;2024-01-30T08:50:54;18.80;;;12.05;;
33160;SDS011;19522;45.656;11.302;2024-01-30T08:53:19;18.30;;;12.70;;
33160;SDS011;19522;45.656;11.302;2024-01-30T08:55:45;16.35;;;10.77;;
33160;SDS011;19522;45.656;11.302;2024-01-30T08:58:10;19.88;;;12.57;;
33160;SDS011;19522;45.656;11.302;2024-01-30T09:00:36;20.83;;;12.65;;
33160;SDS011;19522;45.656;11.302;2024-01-30T09:03:02;17.73;;;11.75;;
33160;SDS011;19522;45.656;11.302;2024-01-30T09:05:28;19.60;;;10.98;;
33160;SDS011;19522;45.656;11.302;2024-01-30T09:07:53;17.48;;;10.57;;
33160;SDS011;19522;45.656;11.302;2024-01-30T09:10:19;12.85;;;9.50;;
33160;SDS011;19522;45.656;11.302;2024-01-30T09:12:45;13.52;;;9.65;;
33160;SDS011;19522;45.656;11.302;2024-01-30T09:15:11;15.65;;;9.40;;
33160;SDS011;19522;45.656;11.302;2024-01-30T09:17:36;15.52;;;9.48;;
33160;SDS011;19522;45.656;11.302;2024-01-30T09:20:02;18.70;;;11.95;;
33160;SDS011;19522;45.656;11.302;2024-01-30T09:22:27;20.10;;;12.50;;
33160;SDS011;19522;45.656;11.302;2024-01-30T09:24:53;21.80;;;13.00;;
33160;SDS011;19522;45.656;11.302;2024-01-30T09:27:18;20.35;;;12.35;;
33160;SDS011;19522;45.656;11.302;2024-01-30T09:29:45;19.40;;;12.73;;
33160;SDS011;19522;45.656;11.302;2024-01-30T09:32:10;14.05;;;10.20;;
33160;SDS011;19522;45.656;11.302;2024-01-30T09:34:36;20.67;;;11.35;;
33160;SDS011;19522;45.656;11.302;2024-01-30T09:37:01;15.73;;;9.23;;
33160;SDS011;19522;45.656;11.302;2024-01-30T09:39:27;15.13;;;10.25;;
33160;SDS011;19522;45.656;11.302;2024-01-30T09:41:55;14.93;;;9.25;;
33160;SDS011;19522;45.656;11.302;2024-01-30T09:44:30;14.73;;;8.95;;
33160;SDS011;19522;45.656;11.302;2024-01-30T09:46:56;13.98;;;8.80;;
33160;SDS011;19522;45.656;11.302;2024-01-30T09:49:28;13.40;;;9.13;;
33160;SDS011;19522;45.656;11.302;2024-01-30T09:51:56;12.85;;;8.18;;
33160;SDS011;19522;45.656;11.302;2024-01-30T09:54:22;12.30;;;8.25;;
33160;SDS011;19522;45.656;11.302;2024-01-30T09:56:48;13.73;;;8.90;;
33160;SDS011;19522;45.656;11.302;2024-01-30T09:59:14;15.13;;;8.93;;
33160;SDS011;19522;45.656;11.302;2024-01-30T10:01:40;12.93;;;7.78;;
33160;SDS011;19522;45.656;11.302;2024-01-30T10:04:06;14.15;;;8.93;;
33160;SDS011;19522;45.656;11.302;2024-01-30T10:06:32;15.30;;;9.20;;
33160;SDS011;19522;45.656;11.302;2024-01-30T10:09:01;13.23;;;8.75;;
33160;SDS011;19522;45.656;11.302;2024-01-30T10:11:26;16.42;;;11.05;;
33160;SDS011;19522;45.656;11.302;2024-01-30T10:13:55;21.40;;;9.77;;
33160;SDS011;19522;45.656;11.302;2024-01-30T10:16:20;14.27;;;8.75;;
33160;SDS011;19522;45.656;11.302;2024-01-30T10:18:46;13.88;;;8.93;;
33160;SDS011;19522;45.656;11.302;2024-01-30T10:21:12;19.33;;;9.70;;
33160;SDS011;19522;45.656;11.302;2024-01-30T10:23:38;14.98;;;10.38;;
33160;SDS011;19522;45.656;11.302;2024-01-30T10:26:03;18.27;;;11.80;;
33160;SDS011;19522;45.656;11.302;2024-01-30T10:28:29;21.85;;;11.80;;
33160;SDS011;19522;45.656;11.302;2024-01-30T10:31:01;21.67;;;13.05;;
33160;SDS011;19522;45.656;11.302;2024-01-30T10:33:29;17.13;;;10.27;;
33160;SDS011;19522;45.656;11.302;2024-01-30T10:36:00;15.07;;;9.80;;
33160;SDS011;19522;45.656;11.302;2024-01-30T10:38:31;15.27;;;9.48;;
33160;SDS011;19522;45.656;11.302;2024-01-30T10:40:57;17.95;;;10.43;;
33160;SDS011;19522;45.656;11.302;2024-01-30T10:43:28;15.82;;;9.48;;
33160;SDS011;19522;45.656;11.302;2024-01-30T10:45:57;15.38;;;9.40;;
33160;SDS011;19522;45.656;11.302;2024-01-30T10:48:36;18.38;;;11.02;;
33160;SDS011;19522;45.656;11.302;2024-01-30T10:51:07;21.17;;;12.02;;
33160;SDS011;19522;45.656;11.302;2024-01-30T10:53:34;18.92;;;11.40;;
33160;SDS011;19522;45.656;11.302;2024-01-30T10:56:01;16.50;;;10.95;;
33160;SDS011;19522;45.656;11.302;2024-01-30T10:58:27;17.50;;;10.57;;
33160;SDS011;19522;45.656;11.302;2024-01-30T11:00:53;19.63;;;11.13;;
33160;SDS011;19522;45.656;11.302;2024-01-30T11:03:20;19.05;;;12.25;;
33160;SDS011;19522;45.656;11.302;2024-01-30T11:05:49;24.48;;;13.52;;
33160;SDS011;19522;45.656;11.302;2024-01-30T11:08:22;28.75;;;12.95;;
33160;SDS011;19522;45.656;11.302;2024-01-30T11:10:54;23.48;;;12.55;;
33160;SDS011;19522;45.656;11.302;2024-01-30T11:13:20;22.30;;;11.80;;
33160;SDS011;19522;45.656;11.302;2024-01-30T11:15:47;16.90;;;10.60;;
33160;SDS011;19522;45.656;11.302;2024-01-30T11:18:22;11.88;;;7.88;;
33160;SDS011;19522;45.656;11.302;2024-01-30T11:20:49;15.23;;;8.23;;
33160;SDS011;19522;45.656;11.302;2024-01-30T11:23:15;12.70;;;6.80;;
33160;SDS011;19522;45.656;11.302;2024-01-30T11:25:40;16.95;;;10.40;;
33160;SDS011;19522;45.656;11.302;2024-01-30T11:28:13;16.40;;;10.32;;
33160;SDS011;19522;45.656;11.302;2024-01-30T11:30:41;21.95;;;12.25;;
33160;SDS011;19522;45.656;11.302;2024-01-30T11:33:08;21.90;;;12.52;;
33160;SDS011;19522;45.656;11.302;2024-01-30T11:35:37;21.35;;;12.35;;
33160;SDS011;19522;45.656;11.302;2024-01-30T11:38:10;21.33;;;11.80;;
33160;SDS011;19522;45.656;11.302;2024-01-30T11:40:38;18.58;;;11.55;;
33160;SDS011;19522;45.656;11.302;2024-01-30T11:43:05;22.52;;;12.70;;
33160;SDS011;19522;45.656;11.302;2024-01-30T11:45:32;21.40;;;13.80;;
33160;SDS011;19522;45.656;11.302;2024-01-30T11:47:58;21.33;;;12.60;;
33160;SDS011;19522;45.656;11.302;2024-01-30T11:50:26;24.63;;;13.90;;
33160;SDS011;19522;45.656;11.302;2024-01-30T11:52:54;22.02;;;13.65;;
33160;SDS011;19522;45.656;11.302;2024-01-30T11:55:19;24.95;;;13.10;;
33160;SDS011;19522;45.656;11.302;2024-01-30T11:57:45;20.58;;;12.65;;
33160;SDS011;19522;45.656;11.302;2024-01-30T12:00:14;21.73;;;13.07;;
33160;SDS011;19522;45.656;11.302;2024-01-30T12:02:41;27.02;;;14.25;;
33160;SDS011;19522;45.656;11.302;2024-01-30T12:05:07;25.95;;;14.90;;
33160;SDS011;19522;45.656;11.302;2024-01-30T12:07:34;22.63;;;14.88;;
33160;SDS011;19522;45.656;11.302;2024-01-30T12:09:59;22.27;;;14.23;;
33160;SDS011;19522;45.656;11.302;2024-01-30T12:12:26;22.58;;;13.85;;
33160;SDS011;19522;45.656;11.302;2024-01-30T12:14:53;21.83;;;13.85;;
33160;SDS011;19522;45.656;11.302;2024-01-30T12:20:06;22.23;;;13.05;;
33160;SDS011;19522;45.656;11.302;2024-01-30T12:22:37;22.48;;;13.90;;
33160;SDS011;19522;45.656;11.302;2024-01-30T12:25:04;24.38;;;14.50;;
33160;SDS011;19522;45.656;11.302;2024-01-30T12:27:33;22.35;;;14.30;;
33160;SDS011;19522;45.656;11.302;2024-01-30T12:29:58;25.73;;;14.88;;
33160;SDS011;19522;45.656;11.302;2024-01-30T12:32:24;26.75;;;16.38;;
33160;SDS011;19522;45.656;11.302;2024-01-30T12:34:50;23.17;;;14.30;;
33160;SDS011;19522;45.656;11.302;2024-01-30T12:37:15;24.77;;;15.52;;
33160;SDS011;19522;45.656;11.302;2024-01-30T12:39:46;26.48;;;15.18;;
33160;SDS011;19522;45.656;11.302;2024-01-30T12:42:13;24.33;;;15.13;;
33160;SDS011;19522;45.656;11.302;2024-01-30T12:44:38;23.92;;;14.45;;
33160;SDS011;19522;45.656;11.302;2024-01-30T12:47:04;27.30;;;15.68;;
33160;SDS011;19522;45.656;11.302;2024-01-30T12:49:30;26.75;;;14.45;;
33160;SDS011;19522;45.656;11.302;2024-01-30T12:51:55;23.83;;;14.90;;
33160;SDS011;19522;45.656;11.302;2024-01-30T12:54:22;28.77;;;16.30;;
33160;SDS011;19522;45.656;11.302;2024-01-30T12:56:48;24.58;;;14.75;;
33160;SDS011;19522;45.656;11.302;2024-01-30T12:59:13;25.92;;;15.38;;
33160;SDS011;19522;45.656;11.302;2024-01-30T13:01:39;26.30;;;16.02;;
33160;SDS011;19522;45.656;11.302;2024-01-30T13:04:08;22.67;;;14.98;;
33160;SDS011;19522;45.656;11.302;2024-01-30T13:06:33;25.02;;;15.48;;
33160;SDS011;19522;45.656;11.302;2024-01-30T13:08:59;29.05;;;16.70;;
33160;SDS011;19522;45.656;11.302;2024-01-30T13:11:24;26.63;;;16.02;;
33160;SDS011;19522;45.656;11.302;2024-01-30T13:13:51;29.60;;;16.65;;
33160;SDS011;19522;45.656;11.302;2024-01-30T13:16:16;32.10;;;17.75;;
33160;SDS011;19522;45.656;11.302;2024-01-30T13:18:43;27.25;;;15.95;;
33160;SDS011;19522;45.656;11.302;2024-01-30T13:21:09;26.70;;;15.35;;
33160;SDS011;19522;45.656;11.302;2024-01-30T13:23:35;28.02;;;14.98;;
33160;SDS011;19522;45.656;11.302;2024-01-30T13:26:00;22.88;;;14.25;;
33160;SDS011;19522;45.656;11.302;2024-01-30T13:28:26;22.77;;;13.70;;
33160;SDS011;19522;45.656;11.302;2024-01-30T13:30:51;22.38;;;12.90;;
33160;SDS011;19522;45.656;11.302;2024-01-30T13:33:17;26.83;;;15.20;;
33160;SDS011;19522;45.656;11.302;2024-01-30T13:35:42;24.70;;;14.95;;
33160;SDS011;19522;45.656;11.302;2024-01-30T13:38:08;24.40;;;14.38;;
33160;SDS011;19522;45.656;11.302;2024-01-30T13:40:34;24.13;;;14.75;;
33160;SDS011;19522;45.656;11.302;2024-01-30T13:42:59;26.83;;;15.30;;
33160;SDS011;19522;45.656;11.302;2024-01-30T13:45:25;23.60;;;14.50;;
33160;SDS011;19522;45.656;11.302;2024-01-30T13:47:50;23.60;;;14.20;;
33160;SDS011;19522;45.656;11.302;2024-01-30T13:50:16;25.13;;;14.43;;
33160;SDS011;19522;45.656;11.302;2024-01-30T13:52:42;22.35;;;13.63;;
33160;SDS011;19522;45.656;11.302;2024-01-30T13:55:08;20.77;;;12.85;;
33160;SDS011;19522;45.656;11.302;2024-01-30T13:57:35;23.30;;;12.45;;
33160;SDS011;19522;45.656;11.302;2024-01-30T14:00:02;20.50;;;12.40;;
33160;SDS011;19522;45.656;11.302;2024-01-30T14:02:31;19.45;;;11.50;;
33160;SDS011;19522;45.656;11.302;2024-01-30T14:04:57;18.65;;;11.77;;
33160;SDS011;19522;45.656;11.302;2024-01-30T14:07:26;18.90;;;11.73;;
33160;SDS011;19522;45.656;11.302;2024-01-30T14:09:51;19.88;;;12.93;;
33160;SDS011;19522;45.656;11.302;2024-01-30T14:12:19;18.08;;;11.65;;